createdAt,value
2023-04-12T00:01:32.841Z,29.70
2023-04-12T00:04:03.849Z,27.90
2023-04-12T00:06:35.649Z,28.30
2023-04-12T00:09:03.668Z,29.80
2023-04-12T00:11:30.876Z,25.80
2023-04-12T00:13:58.105Z,26.80
2023-04-12T00:16:27.167Z,27.30
2023-04-12T00:18:56.833Z,23.60
2023-04-12T00:21:23.462Z,29.20
2023-04-12T00:23:51.649Z,29.40
2023-04-12T00:26:20.548Z,27.30
2023-04-12T00:28:47.546Z,24.80
2023-04-12T00:31:14.061Z,28.10
2023-04-12T00:33:42.236Z,27.20
2023-04-12T00:36:09.483Z,29.70
2023-04-12T00:38:37.118Z,23.10
2023-04-12T00:41:04.319Z,28.90
2023-04-12T00:43:32.358Z,25.90
2023-04-12T00:45:59.014Z,23.50
2023-04-12T00:51:00.523Z,28.60
2023-04-12T00:53:27.937Z,25.70
2023-04-12T00:55:56.354Z,28.60
2023-04-12T00:58:26.269Z,24.40
2023-04-12T01:01:01.059Z,25.80
2023-04-12T01:03:30.221Z,24.60
2023-04-12T01:06:29.274Z,23.50
2023-04-12T01:09:04.368Z,30.10
2023-04-12T01:11:35.075Z,29.60
2023-04-12T01:14:41.072Z,28.10
2023-04-12T01:17:09.377Z,26.60
2023-04-12T01:19:52.845Z,30.10
2023-04-12T01:22:41.905Z,28.20
2023-04-12T01:25:15.630Z,31.40
2023-04-12T01:27:47.619Z,31.80
2023-04-12T01:30:17.111Z,25.70
2023-04-12T01:32:46.304Z,30.50
2023-04-12T01:35:12.895Z,27.80
2023-04-12T01:37:42.554Z,26.80
2023-04-12T01:40:12.071Z,27.30
2023-04-12T01:42:39.346Z,25.60
2023-04-12T01:45:11.146Z,25.40
2023-04-12T01:47:40.812Z,24.70
2023-04-12T01:50:21.938Z,26.40
2023-04-12T01:53:13.448Z,25.60
2023-04-12T01:55:42.234Z,26.90
2023-04-12T01:58:11.137Z,26.00
2023-04-12T02:00:37.690Z,24.90
2023-04-12T02:03:07.181Z,27.00
2023-04-12T02:05:35.045Z,27.70
2023-04-12T02:08:01.793Z,25.50
2023-04-12T02:10:36.105Z,28.90
2023-04-12T02:13:03.834Z,23.10
2023-04-12T02:15:30.883Z,25.10
2023-04-12T02:18:03.014Z,31.20
2023-04-12T02:20:30.924Z,25.40
2023-04-12T02:22:57.547Z,28.10
2023-04-12T02:25:26.817Z,25.00
2023-04-12T02:27:54.339Z,26.70
2023-04-12T02:30:20.993Z,25.40
2023-04-12T02:32:52.522Z,23.80
2023-04-12T02:35:24.324Z,25.70
2023-04-12T02:37:57.290Z,26.70
2023-04-12T02:42:54.857Z,27.60
2023-04-12T02:47:52.253Z,29.20
2023-04-12T02:50:22.041Z,24.50
2023-04-12T02:52:55.638Z,27.30
2023-04-12T02:55:22.850Z,25.50
2023-04-12T02:57:49.751Z,27.10
2023-04-12T03:00:17.808Z,30.60
2023-04-12T03:05:26.768Z,36.50
2023-04-12T03:07:54.235Z,30.50
2023-04-12T03:10:26.695Z,23.50
2023-04-12T03:13:01.485Z,25.90
2023-04-12T03:15:47.144Z,29.80
2023-04-12T03:18:13.983Z,26.30
2023-04-12T03:20:47.953Z,27.00
2023-04-12T03:23:20.775Z,27.00
2023-04-12T03:25:51.827Z,27.50
2023-04-12T03:28:38.269Z,27.70
2023-04-12T03:31:07.053Z,28.20
2023-04-12T03:33:40.152Z,26.20
2023-04-12T03:36:11.511Z,26.50
2023-04-12T03:38:38.099Z,28.10
2023-04-12T03:41:06.510Z,23.60
2023-04-12T03:46:07.393Z,28.80
2023-04-12T03:48:34.636Z,26.80
2023-04-12T03:51:07.032Z,24.90
2023-04-12T03:53:34.984Z,24.50
2023-04-12T03:56:01.924Z,26.00
2023-04-12T03:58:33.168Z,29.30
2023-04-12T04:01:05.418Z,25.80
2023-04-12T04:03:35.687Z,27.20
2023-04-12T04:06:16.818Z,23.40
2023-04-12T04:08:46.584Z,25.30
2023-04-12T04:11:14.470Z,22.50
2023-04-12T04:13:46.545Z,25.10
2023-04-12T04:16:17.488Z,22.30
2023-04-12T04:18:44.624Z,22.40
2023-04-12T04:21:13.766Z,18.70
2023-04-12T04:23:47.396Z,18.60
2023-04-12T04:26:19.732Z,21.10
2023-04-12T04:28:53.451Z,22.70
2023-04-12T04:31:25.621Z,19.80
2023-04-12T04:33:58.241Z,21.50
2023-04-12T04:36:29.644Z,21.20
2023-04-12T04:38:57.490Z,18.20
2023-04-12T04:41:40.698Z,21.80
2023-04-12T04:44:12.676Z,24.10
2023-04-12T04:46:48.118Z,20.60
2023-04-12T04:49:15.740Z,26.90
2023-04-12T04:51:43.570Z,22.70
2023-04-12T04:54:11.041Z,19.10
2023-04-12T04:56:46.566Z,23.10
2023-04-12T04:59:17.007Z,20.00
2023-04-12T05:01:44.385Z,21.60
2023-04-12T05:04:19.802Z,22.10
2023-04-12T05:06:48.664Z,19.60
2023-04-12T05:09:17.803Z,18.20
2023-04-12T05:11:51.909Z,20.60
2023-04-12T05:14:19.110Z,21.60
2023-04-12T05:16:46.771Z,22.00
2023-04-12T05:19:13.942Z,24.20
2023-04-12T05:21:41.079Z,19.90
2023-04-12T05:24:08.167Z,23.80
2023-04-12T05:26:42.995Z,23.70
2023-04-12T05:29:12.946Z,27.00
2023-04-12T05:31:40.395Z,26.30
2023-04-12T05:34:11.492Z,17.50
2023-04-12T05:36:43.958Z,25.30
2023-04-12T05:39:10.957Z,22.10
2023-04-12T05:41:40.128Z,23.80
2023-04-12T05:44:06.733Z,18.70
2023-04-12T05:46:38.363Z,18.20
2023-04-12T05:49:08.276Z,18.30
2023-04-12T05:51:41.377Z,19.20
2023-04-12T05:54:15.122Z,18.90
2023-04-12T05:56:42.159Z,19.60
2023-04-12T05:59:10.368Z,20.60
2023-04-12T06:01:42.010Z,17.00
2023-04-12T06:04:09.766Z,22.10
2023-04-12T06:06:39.423Z,22.00
2023-04-12T06:09:06.686Z,21.70
2023-04-12T06:11:33.293Z,17.50
2023-04-12T06:14:05.665Z,18.00
2023-04-12T06:16:35.826Z,18.80
2023-04-12T06:19:02.512Z,18.70
2023-04-12T06:21:30.852Z,18.30
2023-04-12T06:23:58.663Z,18.50
2023-04-12T06:26:25.233Z,18.20
2023-04-12T06:28:54.754Z,16.20
2023-04-12T06:31:21.585Z,19.50
2023-04-12T06:33:49.780Z,16.20
2023-04-12T06:36:16.824Z,16.30
2023-04-12T06:38:43.871Z,16.60
2023-04-12T06:41:12.399Z,15.70
2023-04-12T06:43:40.419Z,16.80
2023-04-12T06:46:08.389Z,14.00
2023-04-12T06:48:36.513Z,19.50
2023-04-12T06:51:03.205Z,16.30
2023-04-12T06:53:34.349Z,14.90
2023-04-12T06:56:05.032Z,16.50
2023-04-12T06:58:31.704Z,14.70
2023-04-12T07:01:07.906Z,14.80
2023-04-12T07:03:36.118Z,16.40
2023-04-12T07:06:13.830Z,15.80
2023-04-12T07:08:50.683Z,15.90
2023-04-12T07:11:21.319Z,14.20
2023-04-12T07:14:00.627Z,14.40
2023-04-12T07:16:29.969Z,14.10
2023-04-12T07:18:56.863Z,12.70
2023-04-12T07:21:32.330Z,13.70
2023-04-12T07:23:58.964Z,13.70
2023-04-12T07:26:25.695Z,15.70
2023-04-12T07:28:52.398Z,16.40
2023-04-12T07:31:19.688Z,15.50
2023-04-12T07:33:46.406Z,16.30
2023-04-12T07:36:15.652Z,16.90
2023-04-12T07:38:42.748Z,17.00
2023-04-12T07:41:11.660Z,13.30
2023-04-12T07:43:40.100Z,15.90
2023-04-12T07:46:07.941Z,13.60
2023-04-12T07:48:37.598Z,15.10
2023-04-12T07:51:07.023Z,12.40
2023-04-12T07:53:33.798Z,14.60
2023-04-12T07:56:06.363Z,17.70
2023-04-12T07:58:33.791Z,16.40
2023-04-12T08:01:01.431Z,13.10
2023-04-12T08:03:29.332Z,12.90
2023-04-12T08:05:56.306Z,14.10
2023-04-12T08:08:25.336Z,15.20
2023-04-12T08:10:52.540Z,14.80
2023-04-12T08:13:19.323Z,14.80
2023-04-12T08:15:46.675Z,16.40
2023-04-12T08:18:13.686Z,14.80
2023-04-12T08:20:40.828Z,16.20
2023-04-12T08:23:11.031Z,13.20
2023-04-12T08:25:39.285Z,17.40
2023-04-12T08:28:08.548Z,15.30
2023-04-12T08:30:36.040Z,12.60
2023-04-12T08:33:03.387Z,14.70
2023-04-12T08:35:30.197Z,13.30
2023-04-12T08:38:07.011Z,13.00
2023-04-12T08:40:34.791Z,12.90
2023-04-12T08:43:03.277Z,15.00
2023-04-12T08:45:31.874Z,12.30
2023-04-12T08:50:28.620Z,14.80
2023-04-12T08:52:55.255Z,13.80
2023-04-12T08:55:24.917Z,14.80
2023-04-12T08:57:54.374Z,12.30
2023-04-12T09:00:21.382Z,13.50
2023-04-12T09:02:52.292Z,14.80
2023-04-12T09:05:29.943Z,13.60
2023-04-12T09:07:58.534Z,11.80
2023-04-12T09:10:33.164Z,12.80
2023-04-12T09:13:00.656Z,13.90
2023-04-12T09:15:27.676Z,15.40
2023-04-12T09:18:10.766Z,13.30
2023-04-12T09:20:39.602Z,13.50
2023-04-12T09:23:20.703Z,14.10
2023-04-12T09:25:53.869Z,23.10
2023-04-12T09:28:23.056Z,26.10
2023-04-12T09:30:52.358Z,13.00
2023-04-12T09:33:42.637Z,15.50
2023-04-12T09:36:12.897Z,11.40
2023-04-12T09:38:42.151Z,13.30
2023-04-12T09:41:22.308Z,9.80
2023-04-12T09:43:50.445Z,13.10
2023-04-12T09:46:19.100Z,14.80
2023-04-12T09:48:53.597Z,10.90
2023-04-12T09:51:26.069Z,14.20
2023-04-12T09:54:02.586Z,12.70
2023-04-12T09:56:36.069Z,11.80
2023-04-12T09:59:09.892Z,15.00
2023-04-12T10:01:40.621Z,13.60
2023-04-12T10:04:09.163Z,13.40
2023-04-12T10:06:43.420Z,12.70
2023-04-12T10:09:10.057Z,15.60
2023-04-12T10:11:40.047Z,12.70
2023-04-12T10:14:06.767Z,10.80
2023-04-12T10:16:39.098Z,14.20
2023-04-12T10:19:06.000Z,12.40
2023-04-12T10:21:32.628Z,14.00
2023-04-12T10:24:02.961Z,11.20
2023-04-12T10:26:29.998Z,9.10
2023-04-12T10:29:22.671Z,11.90
2023-04-12T10:31:49.856Z,16.70
2023-04-12T10:34:17.425Z,11.50
2023-04-12T10:36:51.584Z,11.40
2023-04-12T10:39:37.511Z,10.60
2023-04-12T10:42:26.845Z,10.90
2023-04-12T10:45:24.608Z,11.00
2023-04-12T10:47:51.683Z,9.00
2023-04-12T10:50:29.515Z,12.40
2023-04-12T10:53:24.370Z,9.00
2023-04-12T10:55:51.594Z,10.40
2023-04-12T10:58:55.221Z,12.50
2023-04-12T11:01:24.774Z,13.90
2023-04-12T11:04:15.311Z,12.80
2023-04-12T11:06:59.615Z,14.80
2023-04-12T11:10:00.526Z,23.50
2023-04-12T11:12:32.886Z,18.60
2023-04-12T11:15:03.602Z,16.10
2023-04-12T11:17:53.847Z,21.20
2023-04-12T11:20:20.763Z,19.20
2023-04-12T11:22:47.417Z,14.20
2023-04-12T11:25:16.203Z,10.30
2023-04-12T11:27:49.752Z,12.50
2023-04-12T11:30:19.536Z,16.00
2023-04-12T11:32:47.196Z,16.40
2023-04-12T11:35:15.513Z,18.80
2023-04-12T11:37:43.385Z,16.80
2023-04-12T11:40:10.692Z,14.00
2023-04-12T11:42:40.472Z,22.00
2023-04-12T11:45:15.730Z,18.60
2023-04-12T11:47:43.794Z,19.00
2023-04-12T11:50:10.680Z,17.70
2023-04-12T11:52:40.507Z,32.00
2023-04-12T11:55:10.334Z,15.80
2023-04-12T11:57:37.917Z,21.40
2023-04-12T12:00:06.070Z,17.80
2023-04-12T12:02:52.211Z,18.20
2023-04-12T12:05:23.617Z,16.90
2023-04-12T12:07:51.991Z,17.20
2023-04-12T12:10:37.734Z,19.70
2023-04-12T12:13:13.847Z,16.20
2023-04-12T12:15:44.496Z,27.30
2023-04-12T12:18:12.416Z,19.90
2023-04-12T12:20:41.495Z,14.80
2023-04-12T12:23:08.393Z,15.50
2023-04-12T12:25:36.692Z,29.50
2023-04-12T12:28:05.128Z,22.70
2023-04-12T12:30:39.236Z,14.70
2023-04-12T12:33:06.969Z,19.60
2023-04-12T12:35:34.472Z,42.10
2023-04-12T12:38:06.256Z,16.00
2023-04-12T12:40:33.436Z,13.10
2023-04-12T12:43:00.446Z,15.30
2023-04-12T12:45:28.626Z,22.10
2023-04-12T12:47:58.318Z,25.50
2023-04-12T12:50:27.092Z,23.00
2023-04-12T12:52:54.834Z,14.20
2023-04-12T12:55:22.276Z,10.30
2023-04-12T12:58:06.724Z,16.40
2023-04-12T13:00:34.822Z,13.10
2023-04-12T13:03:02.176Z,15.90
2023-04-12T13:05:30.156Z,13.70
2023-04-12T13:07:56.904Z,11.30
2023-04-12T13:10:25.964Z,13.00
2023-04-12T13:12:54.447Z,15.90
2023-04-12T13:15:23.805Z,14.00
2023-04-12T13:17:52.069Z,13.10
2023-04-12T13:20:27.225Z,12.70
2023-04-12T13:22:54.317Z,12.00
2023-04-12T13:25:21.357Z,13.70
2023-04-12T13:27:48.376Z,13.20
2023-04-12T13:30:15.296Z,13.40
2023-04-12T13:32:45.458Z,11.50
2023-04-12T13:35:12.283Z,11.50
2023-04-12T13:37:38.968Z,19.20
2023-04-12T13:40:10.128Z,20.50
2023-04-12T13:42:37.246Z,11.90
2023-04-12T13:45:04.853Z,13.30
2023-04-12T13:47:33.187Z,12.40
2023-04-12T13:50:03.025Z,16.20
2023-04-12T13:52:30.367Z,11.00
2023-04-12T13:54:58.989Z,10.70
2023-04-12T13:57:25.965Z,11.60
2023-04-12T14:02:24.354Z,11.50
2023-04-12T14:04:52.146Z,12.70
2023-04-12T14:07:19.196Z,13.70
2023-04-12T14:09:47.957Z,11.90
2023-04-12T14:12:15.494Z,11.40
2023-04-12T14:14:42.405Z,13.50
2023-04-12T14:17:09.784Z,20.60
2023-04-12T14:19:36.815Z,19.70
2023-04-12T14:22:03.464Z,16.00
2023-04-12T14:24:31.196Z,19.00
2023-04-12T14:27:00.228Z,14.50
2023-04-12T14:29:27.202Z,13.50
2023-04-12T14:31:54.036Z,13.70
2023-04-12T14:34:20.912Z,12.10
2023-04-12T14:36:47.542Z,12.70
2023-04-12T14:39:15.014Z,12.70
2023-04-12T14:41:43.502Z,14.70
2023-04-12T14:44:10.449Z,10.90
2023-04-12T14:46:37.871Z,9.30
2023-04-12T14:49:04.962Z,12.80
2023-04-12T14:51:32.536Z,10.70
2023-04-12T14:53:59.334Z,9.70
2023-04-12T14:56:29.466Z,10.20
2023-04-12T14:58:57.814Z,11.50
2023-04-12T15:01:24.668Z,10.60
2023-04-12T15:03:53.166Z,9.40
2023-04-12T15:08:55.163Z,9.00
2023-04-12T15:11:25.831Z,10.20
2023-04-12T15:13:58.497Z,11.30
2023-04-12T15:16:28.208Z,9.00
2023-04-12T15:18:56.193Z,10.20
2023-04-12T15:21:25.516Z,13.60
2023-04-12T15:23:57.847Z,5.70
2023-04-12T15:26:25.256Z,6.90
2023-04-12T15:28:51.920Z,8.20
2023-04-12T15:31:19.042Z,12.50
2023-04-12T15:33:46.431Z,8.30
2023-04-12T15:36:16.072Z,8.00
2023-04-12T15:38:47.222Z,9.90
2023-04-12T15:41:14.150Z,9.20
2023-04-12T15:43:44.495Z,7.30
2023-04-12T15:46:14.976Z,8.80
2023-04-12T15:48:43.022Z,9.10
2023-04-12T15:51:09.895Z,6.80
2023-04-12T15:53:37.422Z,6.40
2023-04-12T15:56:04.444Z,6.90
2023-04-12T15:58:31.472Z,6.60
2023-04-12T16:00:59.111Z,6.30
2023-04-12T16:03:27.041Z,6.60
2023-04-12T16:05:54.416Z,7.00
2023-04-12T16:08:22.379Z,4.70
2023-04-12T16:10:50.601Z,3.90
2023-04-12T16:13:17.651Z,5.30
2023-04-12T16:15:45.163Z,5.60
2023-04-12T16:18:12.182Z,4.30
2023-04-12T16:20:42.316Z,4.50
2023-04-12T16:23:09.980Z,5.90
2023-04-12T16:25:45.266Z,5.40
2023-04-12T16:28:14.185Z,8.50
2023-04-12T16:30:41.373Z,6.80
2023-04-12T16:33:12.398Z,7.70
2023-04-12T16:35:40.229Z,10.20
2023-04-12T16:38:07.648Z,10.80
2023-04-12T16:40:34.299Z,9.30
2023-04-12T16:43:01.956Z,11.80
2023-04-12T16:45:28.905Z,12.80
2023-04-12T16:47:56.422Z,5.80
2023-04-12T16:50:25.294Z,7.80
2023-04-12T16:52:52.388Z,17.10
2023-04-12T16:55:19.239Z,6.90
2023-04-12T16:57:46.306Z,4.80
2023-04-12T17:00:19.911Z,11.90
2023-04-12T17:02:53.120Z,8.20
2023-04-12T17:05:21.074Z,12.70
2023-04-12T17:07:49.477Z,9.50
2023-04-12T17:10:17.907Z,12.00
2023-04-12T17:12:49.018Z,7.10
2023-04-12T17:15:17.357Z,8.40
2023-04-12T17:17:50.165Z,5.80
2023-04-12T17:20:19.376Z,11.40
2023-04-12T17:22:46.677Z,7.90
2023-04-12T17:25:13.808Z,11.30
2023-04-12T17:27:41.426Z,11.90
2023-04-12T17:30:11.097Z,9.30
2023-04-12T17:32:39.476Z,7.30
2023-04-12T17:35:07.434Z,5.60
2023-04-12T17:37:34.501Z,6.10
2023-04-12T17:40:04.856Z,6.00
2023-04-12T17:42:31.614Z,5.20
2023-04-12T17:44:59.187Z,6.20
2023-04-12T17:47:34.415Z,6.10
2023-04-12T17:50:01.729Z,6.40
2023-04-12T17:52:28.826Z,6.20
2023-04-12T17:54:56.521Z,7.20
2023-04-12T17:57:23.150Z,6.00
2023-04-12T17:59:49.867Z,7.80
2023-04-12T18:02:16.956Z,11.70
2023-04-12T18:04:44.758Z,9.60
2023-04-12T18:07:12.281Z,8.10
2023-04-12T18:09:44.009Z,7.40
2023-04-12T18:12:11.655Z,8.10
2023-04-12T18:14:40.606Z,10.90
2023-04-12T18:17:11.043Z,9.40
2023-04-12T18:19:39.430Z,10.80
2023-04-12T18:22:06.436Z,10.90
2023-04-12T18:24:33.148Z,9.90
2023-04-12T18:27:01.044Z,12.80
2023-04-12T18:29:28.106Z,10.80
2023-04-12T18:31:55.193Z,10.70
2023-04-12T18:34:22.273Z,11.50
2023-04-12T18:36:50.136Z,11.50
2023-04-12T18:39:16.866Z,12.00
2023-04-12T18:41:43.724Z,11.60
2023-04-12T18:44:12.567Z,16.60
2023-04-12T18:46:40.943Z,14.60
2023-04-12T18:49:09.005Z,14.00
2023-04-12T18:51:36.145Z,16.10
2023-04-12T18:54:03.081Z,14.40
2023-04-12T18:56:31.610Z,15.00
2023-04-12T18:58:58.799Z,17.70
2023-04-12T19:01:27.401Z,15.10
2023-04-12T19:03:56.140Z,13.90
2023-04-12T19:06:23.376Z,20.60
2023-04-12T19:08:50.073Z,15.10
2023-04-12T19:11:23.901Z,17.90
2023-04-12T19:13:52.835Z,22.00
2023-04-12T19:16:19.492Z,19.60
2023-04-12T19:18:55.054Z,18.10
2023-04-12T19:21:21.759Z,22.50
2023-04-12T19:23:48.437Z,16.40
2023-04-12T19:26:16.576Z,16.80
2023-04-12T19:28:45.185Z,16.50
2023-04-12T19:31:14.245Z,15.30
2023-04-12T19:33:42.427Z,22.30
2023-04-12T19:36:09.988Z,13.60
2023-04-12T19:38:42.461Z,15.40
2023-04-12T19:41:09.081Z,16.90
2023-04-12T19:43:36.040Z,16.00
2023-04-12T19:46:02.728Z,19.20
2023-04-12T19:48:29.469Z,15.40
2023-04-12T19:50:58.331Z,14.50
2023-04-12T19:53:25.250Z,12.70
2023-04-12T19:55:56.711Z,15.30
2023-04-12T19:58:24.354Z,16.40
2023-04-12T20:00:51.997Z,19.30
2023-04-12T20:03:21.001Z,21.30
2023-04-12T20:05:47.992Z,18.60
2023-04-12T20:08:15.209Z,17.70
2023-04-12T20:10:42.263Z,21.90
2023-04-12T20:13:14.322Z,19.60
2023-04-12T20:15:42.228Z,18.60
2023-04-12T20:18:10.607Z,15.50
2023-04-12T20:20:37.425Z,19.90
2023-04-12T20:23:04.057Z,18.30
2023-04-12T20:25:37.010Z,14.30
2023-04-12T20:28:04.057Z,15.90
2023-04-12T20:30:30.684Z,14.00
2023-04-12T20:33:00.350Z,21.60
2023-04-12T20:35:27.563Z,15.40
2023-04-12T20:37:54.371Z,17.90
2023-04-12T20:40:22.620Z,15.20
2023-04-12T20:42:49.621Z,23.00
2023-04-12T20:45:18.167Z,23.00
2023-04-12T20:47:45.586Z,18.70
2023-04-12T20:50:12.249Z,18.40
2023-04-12T20:52:39.024Z,16.70
2023-04-12T20:55:06.750Z,17.40
2023-04-12T20:57:34.023Z,18.10
2023-04-12T21:00:01.480Z,16.80
2023-04-12T21:02:30.599Z,16.40
2023-04-12T21:07:11.457Z,17.00
2023-04-12T21:09:40.638Z,16.50
2023-04-12T21:12:09.794Z,16.50
2023-04-12T21:14:50.211Z,13.70
2023-04-12T21:17:22.282Z,16.00
2023-04-12T21:19:51.155Z,14.60
2023-04-12T21:22:24.813Z,13.60
2023-04-12T21:24:53.337Z,17.50
2023-04-12T21:27:21.213Z,17.30
2023-04-12T21:29:51.840Z,13.10
2023-04-12T21:32:20.553Z,16.50
2023-04-12T21:34:50.133Z,16.70
2023-04-12T21:37:18.092Z,14.70
2023-04-12T21:39:46.196Z,14.60
2023-04-12T21:42:16.320Z,20.10
2023-04-12T21:44:44.312Z,15.00
2023-04-12T21:47:12.938Z,16.40
2023-04-12T21:49:41.690Z,13.90
2023-04-12T21:52:09.775Z,17.30
2023-04-12T21:54:39.418Z,17.40
2023-04-12T21:57:07.470Z,12.80
2023-04-12T21:59:37.490Z,13.50
2023-04-12T22:02:07.044Z,17.90
2023-04-12T22:04:35.361Z,16.20
2023-04-12T22:07:04.227Z,15.70
2023-04-12T22:09:33.723Z,12.50
2023-04-12T22:12:06.633Z,13.50
2023-04-12T22:14:36.353Z,14.80
2023-04-12T22:17:06.154Z,14.90
2023-04-12T22:19:34.354Z,14.70
2023-04-12T22:22:04.169Z,14.90
2023-04-12T22:24:33.203Z,14.00
2023-04-12T22:27:01.381Z,14.70
2023-04-12T22:29:30.454Z,18.30
2023-04-12T22:31:59.708Z,20.30
2023-04-12T22:34:27.647Z,19.30
2023-04-12T22:37:01.453Z,15.00
2023-04-12T22:39:29.582Z,22.90
2023-04-12T22:41:58.005Z,13.90
2023-04-12T22:44:26.936Z,18.30
2023-04-12T22:46:55.340Z,19.80
2023-04-12T22:49:28.411Z,20.60
2023-04-12T22:51:57.312Z,19.80
2023-04-12T22:54:25.242Z,20.40
2023-04-12T22:56:54.760Z,17.70
2023-04-12T22:59:24.696Z,22.90
2023-04-12T23:01:53.868Z,19.90
2023-04-12T23:04:21.941Z,19.50
2023-04-12T23:06:55.192Z,16.00
2023-04-12T23:09:23.441Z,23.20
2023-04-12T23:11:53.954Z,24.20
2023-04-12T23:14:23.967Z,19.60
2023-04-12T23:16:51.856Z,22.20
2023-04-12T23:19:20.425Z,15.60
2023-04-12T23:21:48.322Z,15.50
2023-04-12T23:24:18.003Z,16.90
2023-04-12T23:26:47.258Z,18.00
2023-04-12T23:29:15.245Z,16.00
2023-04-12T23:31:45.461Z,14.40
2023-04-12T23:34:13.727Z,17.00
2023-04-12T23:36:41.779Z,16.80
2023-04-12T23:39:09.770Z,21.00
2023-04-12T23:41:40.730Z,16.40
2023-04-12T23:44:12.225Z,13.20
2023-04-12T23:46:43.145Z,17.40
2023-04-12T23:49:12.373Z,13.40
2023-04-12T23:51:47.902Z,15.60
2023-04-12T23:54:16.074Z,14.80
2023-04-12T23:56:44.001Z,17.80
2023-04-12T23:59:13.526Z,15.20
